sensor_id;sensor_type;location;lat;lon;timestamp;temperature;humidity
5689;DHT22;2869;50.432;8.680;2024-03-02T00:01:17;4.30;99.90
5689;DHT22;2869;50.432;8.680;2024-03-02T00:03:43;4.30;99.90
5689;DHT22;2869;50.432;8.680;2024-03-02T00:06:11;4.30;99.90
5689;DHT22;2869;50.432;8.680;2024-03-02T00:08:38;4.30;99.90
5689;DHT22;2869;50.432;8.680;2024-03-02T00:11:05;4.30;99.90
5689;DHT22;2869;50.432;8.680;2024-03-02T00:13:31;4.30;99.90
5689;DHT22;2869;50.432;8.680;2024-03-02T00:15:58;4.20;99.90
5689;DHT22;2869;50.432;8.680;2024-03-02T00:18:26;4.20;99.90
5689;DHT22;2869;50.432;8.680;2024-03-02T00:20:53;4.20;99.90
5689;DHT22;2869;50.432;8.680;2024-03-02T00:23:21;4.20;99.90
5689;DHT22;2869;50.432;8.680;2024-03-02T00:25:48;4.20;99.90
5689;DHT22;2869;50.432;8.680;2024-03-02T00:28:17;4.10;99.90
5689;DHT22;2869;50.432;8.680;2024-03-02T00:30:57;4.10;99.90
5689;DHT22;2869;50.432;8.680;2024-03-02T00:33:25;4.10;99.90
5689;DHT22;2869;50.432;8.680;2024-03-02T00:35:52;4.10;99.90
5689;DHT22;2869;50.432;8.680;2024-03-02T00:38:18;4.10;99.90
5689;DHT22;2869;50.432;8.680;2024-03-02T00:40:46;4.00;99.90
5689;DHT22;2869;50.432;8.680;2024-03-02T00:43:20;4.00;99.90
5689;DHT22;2869;50.432;8.680;2024-03-02T00:45:55;4.00;99.90
5689;DHT22;2869;50.432;8.680;2024-03-02T00:48:22;4.00;99.90
5689;DHT22;2869;50.432;8.680;2024-03-02T00:50:49;4.00;99.90
5689;DHT22;2869;50.432;8.680;2024-03-02T00:53:23;4.00;99.90
5689;DHT22;2869;50.432;8.680;2024-03-02T00:55:51;4.00;99.90
5689;DHT22;2869;50.432;8.680;2024-03-02T00:58:16;4.00;99.90
5689;DHT22;2869;50.432;8.680;2024-03-02T01:00:43;4.00;99.90
5689;DHT22;2869;50.432;8.680;2024-03-02T01:03:09;4.00;99.90
5689;DHT22;2869;50.432;8.680;2024-03-02T01:05:36;4.00;99.90
5689;DHT22;2869;50.432;8.680;2024-03-02T01:08:07;4.00;99.90
5689;DHT22;2869;50.432;8.680;2024-03-02T01:10:33;4.00;99.90
5689;DHT22;2869;50.432;8.680;2024-03-02T01:13:01;4.10;99.90
5689;DHT22;2869;50.432;8.680;2024-03-02T01:15:28;4.10;99.90
5689;DHT22;2869;50.432;8.680;2024-03-02T01:17:54;4.10;99.90
5689;DHT22;2869;50.432;8.680;2024-03-02T01:20:21;4.10;99.90
5689;DHT22;2869;50.432;8.680;2024-03-02T01:22:47;4.20;99.90
5689;DHT22;2869;50.432;8.680;2024-03-02T01:25:14;4.20;99.90
5689;DHT22;2869;50.432;8.680;2024-03-02T01:27:40;4.20;99.90
5689;DHT22;2869;50.432;8.680;2024-03-02T01:30:09;4.30;99.90
5689;DHT22;2869;50.432;8.680;2024-03-02T01:32:37;4.30;99.90
5689;DHT22;2869;50.432;8.680;2024-03-02T01:35:04;4.30;99.90
5689;DHT22;2869;50.432;8.680;2024-03-02T01:37:30;4.30;99.90
5689;DHT22;2869;50.432;8.680;2024-03-02T01:39:57;4.30;99.90
5689;DHT22;2869;50.432;8.680;2024-03-02T01:42:23;4.30;99.90
5689;DHT22;2869;50.432;8.680;2024-03-02T01:44:50;4.30;99.90
5689;DHT22;2869;50.432;8.680;2024-03-02T01:47:18;4.30;99.90
5689;DHT22;2869;50.432;8.680;2024-03-02T01:49:45;4.30;99.90
5689;DHT22;2869;50.432;8.680;2024-03-02T01:52:11;4.30;99.90
5689;DHT22;2869;50.432;8.680;2024-03-02T01:54:37;4.30;99.90
5689;DHT22;2869;50.432;8.680;2024-03-02T01:57:04;4.30;99.90
5689;DHT22;2869;50.432;8.680;2024-03-02T01:59:32;4.30;99.90
5689;DHT22;2869;50.432;8.680;2024-03-02T02:01:58;4.30;99.90
5689;DHT22;2869;50.432;8.680;2024-03-02T02:04:26;4.40;99.90
5689;DHT22;2869;50.432;8.680;2024-03-02T02:06:53;4.40;99.90
5689;DHT22;2869;50.432;8.680;2024-03-02T02:09:19;4.40;99.90
5689;DHT22;2869;50.432;8.680;2024-03-02T02:11:46;4.40;99.90
5689;DHT22;2869;50.432;8.680;2024-03-02T02:14:12;4.40;99.90
5689;DHT22;2869;50.432;8.680;2024-03-02T02:16:39;4.30;99.90
5689;DHT22;2869;50.432;8.680;2024-03-02T02:19:05;4.30;99.90
5689;DHT22;2869;50.432;8.680;2024-03-02T02:21:33;4.20;99.90
5689;DHT22;2869;50.432;8.680;2024-03-02T02:24:00;4.20;99.90
5689;DHT22;2869;50.432;8.680;2024-03-02T02:26:28;4.10;99.90
5689;DHT22;2869;50.432;8.680;2024-03-02T02:28:55;4.10;99.90
5689;DHT22;2869;50.432;8.680;2024-03-02T02:31:22;4.00;99.90
5689;DHT22;2869;50.432;8.680;2024-03-02T02:33:48;4.00;99.90
5689;DHT22;2869;50.432;8.680;2024-03-02T02:36:15;3.90;99.90
5689;DHT22;2869;50.432;8.680;2024-03-02T02:38:45;3.90;99.90
5689;DHT22;2869;50.432;8.680;2024-03-02T02:41:14;3.90;99.90
5689;DHT22;2869;50.432;8.680;2024-03-02T02:43:40;3.90;99.90
5689;DHT22;2869;50.432;8.680;2024-03-02T02:46:07;3.80;99.90
5689;DHT22;2869;50.432;8.680;2024-03-02T02:48:33;3.80;99.90
5689;DHT22;2869;50.432;8.680;2024-03-02T02:51:00;3.80;99.90
5689;DHT22;2869;50.432;8.680;2024-03-02T02:53:27;3.80;99.90
5689;DHT22;2869;50.432;8.680;2024-03-02T02:55:55;3.80;99.90
5689;DHT22;2869;50.432;8.680;2024-03-02T02:58:22;3.60;99.90
5689;DHT22;2869;50.432;8.680;2024-03-02T03:00:48;3.80;99.90
5689;DHT22;2869;50.432;8.680;2024-03-02T03:03:15;3.80;99.90
5689;DHT22;2869;50.432;8.680;2024-03-02T03:05:41;3.80;99.90
5689;DHT22;2869;50.432;8.680;2024-03-02T03:08:08;3.80;99.90
5689;DHT22;2869;50.432;8.680;2024-03-02T03:10:34;3.70;99.90
5689;DHT22;2869;50.432;8.680;2024-03-02T03:13:02;3.70;99.90
5689;DHT22;2869;50.432;8.680;2024-03-02T03:15:28;3.70;99.90
5689;DHT22;2869;50.432;8.680;2024-03-02T03:17:55;3.70;99.90
5689;DHT22;2869;50.432;8.680;2024-03-02T03:20:22;3.70;99.90
5689;DHT22;2869;50.432;8.680;2024-03-02T03:22:50;3.80;99.90
5689;DHT22;2869;50.432;8.680;2024-03-02T03:25:16;3.90;99.90
5689;DHT22;2869;50.432;8.680;2024-03-02T03:27:43;3.90;99.90
5689;DHT22;2869;50.432;8.680;2024-03-02T03:30:11;3.90;99.90
5689;DHT22;2869;50.432;8.680;2024-03-02T03:32:38;3.90;99.90
5689;DHT22;2869;50.432;8.680;2024-03-02T03:35:05;4.00;99.90
5689;DHT22;2869;50.432;8.680;2024-03-02T03:37:31;4.00;99.90
5689;DHT22;2869;50.432;8.680;2024-03-02T03:39:58;3.90;99.90
5689;DHT22;2869;50.432;8.680;2024-03-02T03:42:26;3.80;99.90
5689;DHT22;2869;50.432;8.680;2024-03-02T03:44:52;3.80;99.90
5689;DHT22;2869;50.432;8.680;2024-03-02T03:47:20;3.70;99.90
5689;DHT22;2869;50.432;8.680;2024-03-02T03:49:47;3.70;99.90
5689;DHT22;2869;50.432;8.680;2024-03-02T03:52:13;3.70;99.90
5689;DHT22;2869;50.432;8.680;2024-03-02T03:54:40;3.60;99.90
5689;DHT22;2869;50.432;8.680;2024-03-02T03:57:08;3.60;99.90
5689;DHT22;2869;50.432;8.680;2024-03-02T03:59:34;3.60;99.90
5689;DHT22;2869;50.432;8.680;2024-03-02T04:02:02;3.60;99.90
5689;DHT22;2869;50.432;8.680;2024-03-02T04:04:30;3.60;99.90
5689;DHT22;2869;50.432;8.680;2024-03-02T04:06:57;3.70;99.90
5689;DHT22;2869;50.432;8.680;2024-03-02T04:09:23;3.80;99.90
5689;DHT22;2869;50.432;8.680;2024-03-02T04:11:50;3.80;99.90
5689;DHT22;2869;50.432;8.680;2024-03-02T04:14:17;3.80;99.90
5689;DHT22;2869;50.432;8.680;2024-03-02T04:16:43;3.80;99.90
5689;DHT22;2869;50.432;8.680;2024-03-02T04:19:10;3.90;99.90
5689;DHT22;2869;50.432;8.680;2024-03-02T04:21:38;3.90;99.90
5689;DHT22;2869;50.432;8.680;2024-03-02T04:24:04;3.90;99.90
5689;DHT22;2869;50.432;8.680;2024-03-02T04:26:31;3.90;99.90
5689;DHT22;2869;50.432;8.680;2024-03-02T04:28:57;3.90;99.90
5689;DHT22;2869;50.432;8.680;2024-03-02T04:31:24;3.90;99.90
5689;DHT22;2869;50.432;8.680;2024-03-02T04:33:50;3.90;99.90
5689;DHT22;2869;50.432;8.680;2024-03-02T04:36:17;3.80;99.90
5689;DHT22;2869;50.432;8.680;2024-03-02T04:38:45;3.90;99.90
5689;DHT22;2869;50.432;8.680;2024-03-02T04:41:11;3.90;99.90
5689;DHT22;2869;50.432;8.680;2024-03-02T04:43:38;3.90;99.90
5689;DHT22;2869;50.432;8.680;2024-03-02T04:46:04;3.90;99.90
5689;DHT22;2869;50.432;8.680;2024-03-02T04:48:31;3.90;99.90
5689;DHT22;2869;50.432;8.680;2024-03-02T04:50:57;3.90;99.90
5689;DHT22;2869;50.432;8.680;2024-03-02T04:53:24;3.90;99.90
5689;DHT22;2869;50.432;8.680;2024-03-02T04:55:52;3.90;99.90
5689;DHT22;2869;50.432;8.680;2024-03-02T04:58:45;3.90;99.90
5689;DHT22;2869;50.432;8.680;2024-03-02T05:01:12;3.90;99.90
5689;DHT22;2869;50.432;8.680;2024-03-02T05:03:38;3.90;99.90
5689;DHT22;2869;50.432;8.680;2024-03-02T05:06:05;3.90;99.90
5689;DHT22;2869;50.432;8.680;2024-03-02T05:08:31;3.90;99.90
5689;DHT22;2869;50.432;8.680;2024-03-02T05:10:59;3.90;99.90
5689;DHT22;2869;50.432;8.680;2024-03-02T05:13:45;4.00;99.90
5689;DHT22;2869;50.432;8.680;2024-03-02T05:16:12;4.00;99.90
5689;DHT22;2869;50.432;8.680;2024-03-02T05:18:38;4.00;99.90
5689;DHT22;2869;50.432;8.680;2024-03-02T05:21:05;3.90;99.90
5689;DHT22;2869;50.432;8.680;2024-03-02T05:23:31;3.90;99.90
5689;DHT22;2869;50.432;8.680;2024-03-02T05:25:59;3.90;99.90
5689;DHT22;2869;50.432;8.680;2024-03-02T05:28:26;3.90;99.90
5689;DHT22;2869;50.432;8.680;2024-03-02T05:30:52;3.90;99.90
5689;DHT22;2869;50.432;8.680;2024-03-02T05:33:19;3.90;99.90
5689;DHT22;2869;50.432;8.680;2024-03-02T05:35:47;3.90;99.90
5689;DHT22;2869;50.432;8.680;2024-03-02T05:38:15;4.00;99.90
5689;DHT22;2869;50.432;8.680;2024-03-02T05:40:41;4.00;99.90
5689;DHT22;2869;50.432;8.680;2024-03-02T05:43:09;3.90;99.90
5689;DHT22;2869;50.432;8.680;2024-03-02T05:45:36;3.90;99.90
5689;DHT22;2869;50.432;8.680;2024-03-02T05:48:02;4.00;99.90
5689;DHT22;2869;50.432;8.680;2024-03-02T05:50:29;4.00;99.90
5689;DHT22;2869;50.432;8.680;2024-03-02T05:52:55;4.00;99.90
5689;DHT22;2869;50.432;8.680;2024-03-02T05:55:22;4.00;99.90
5689;DHT22;2869;50.432;8.680;2024-03-02T05:57:48;4.00;99.90
5689;DHT22;2869;50.432;8.680;2024-03-02T06:00:29;4.00;99.90
5689;DHT22;2869;50.432;8.680;2024-03-02T06:02:56;4.00;99.90
5689;DHT22;2869;50.432;8.680;2024-03-02T06:05:23;4.00;99.90
5689;DHT22;2869;50.432;8.680;2024-03-02T06:07:49;3.90;99.90
5689;DHT22;2869;50.432;8.680;2024-03-02T06:10:16;4.00;99.90
5689;DHT22;2869;50.432;8.680;2024-03-02T06:12:43;4.00;99.90
5689;DHT22;2869;50.432;8.680;2024-03-02T06:15:09;4.00;99.90
5689;DHT22;2869;50.432;8.680;2024-03-02T06:17:37;4.00;99.90
5689;DHT22;2869;50.432;8.680;2024-03-02T06:20:04;4.00;99.90
5689;DHT22;2869;50.432;8.680;2024-03-02T06:22:33;4.00;99.90
5689;DHT22;2869;50.432;8.680;2024-03-02T06:25:00;4.10;99.90
5689;DHT22;2869;50.432;8.680;2024-03-02T06:27:26;4.10;99.90
5689;DHT22;2869;50.432;8.680;2024-03-02T06:29:53;4.20;99.90
5689;DHT22;2869;50.432;8.680;2024-03-02T06:32:20;4.20;99.90
5689;DHT22;2869;50.432;8.680;2024-03-02T06:34:48;4.20;99.90
5689;DHT22;2869;50.432;8.680;2024-03-02T06:37:14;4.20;99.90
5689;DHT22;2869;50.432;8.680;2024-03-02T06:39:41;4.30;99.90
5689;DHT22;2869;50.432;8.680;2024-03-02T06:42:07;4.30;99.90
5689;DHT22;2869;50.432;8.680;2024-03-02T06:44:34;4.40;99.90
5689;DHT22;2869;50.432;8.680;2024-03-02T06:47:00;4.40;99.90
5689;DHT22;2869;50.432;8.680;2024-03-02T06:49:27;4.50;99.90
5689;DHT22;2869;50.432;8.680;2024-03-02T06:51:55;4.50;99.90
5689;DHT22;2869;50.432;8.680;2024-03-02T06:54:21;4.50;99.90
5689;DHT22;2869;50.432;8.680;2024-03-02T06:56:48;4.60;99.90
5689;DHT22;2869;50.432;8.680;2024-03-02T06:59:14;4.60;99.90
5689;DHT22;2869;50.432;8.680;2024-03-02T07:01:41;4.60;99.90
5689;DHT22;2869;50.432;8.680;2024-03-02T07:04:08;4.60;99.90
5689;DHT22;2869;50.432;8.680;2024-03-02T07:06:35;4.70;99.90
5689;DHT22;2869;50.432;8.680;2024-03-02T07:09:03;4.70;99.90
5689;DHT22;2869;50.432;8.680;2024-03-02T07:11:30;4.60;99.90
5689;DHT22;2869;50.432;8.680;2024-03-02T07:13:56;4.60;99.90
5689;DHT22;2869;50.432;8.680;2024-03-02T07:16:23;4.60;99.90
5689;DHT22;2869;50.432;8.680;2024-03-02T07:18:55;4.60;99.90
5689;DHT22;2869;50.432;8.680;2024-03-02T07:21:22;4.70;99.90
5689;DHT22;2869;50.432;8.680;2024-03-02T07:23:48;4.70;99.90
5689;DHT22;2869;50.432;8.680;2024-03-02T07:26:16;4.70;99.90
5689;DHT22;2869;50.432;8.680;2024-03-02T07:28:44;4.80;99.90
5689;DHT22;2869;50.432;8.680;2024-03-02T07:31:11;4.80;99.90
5689;DHT22;2869;50.432;8.680;2024-03-02T07:33:37;4.80;99.90
5689;DHT22;2869;50.432;8.680;2024-03-02T07:36:04;4.80;99.90
5689;DHT22;2869;50.432;8.680;2024-03-02T07:38:31;4.80;99.90
5689;DHT22;2869;50.432;8.680;2024-03-02T07:40:59;4.90;99.90
5689;DHT22;2869;50.432;8.680;2024-03-02T07:43:27;5.00;99.90
5689;DHT22;2869;50.432;8.680;2024-03-02T07:45:54;5.00;99.90
5689;DHT22;2869;50.432;8.680;2024-03-02T07:48:20;5.10;99.90
5689;DHT22;2869;50.432;8.680;2024-03-02T07:50:47;5.30;99.90
5689;DHT22;2869;50.432;8.680;2024-03-02T07:53:14;5.40;99.90
5689;DHT22;2869;50.432;8.680;2024-03-02T07:55:40;5.60;99.90
5689;DHT22;2869;50.432;8.680;2024-03-02T07:58:07;5.80;99.90
5689;DHT22;2869;50.432;8.680;2024-03-02T08:00:34;6.10;99.90
5689;DHT22;2869;50.432;8.680;2024-03-02T08:03:01;6.40;99.90
5689;DHT22;2869;50.432;8.680;2024-03-02T08:05:28;6.40;99.90
5689;DHT22;2869;50.432;8.680;2024-03-02T08:07:55;6.50;99.90
5689;DHT22;2869;50.432;8.680;2024-03-02T08:10:21;6.80;99.90
5689;DHT22;2869;50.432;8.680;2024-03-02T08:12:48;7.30;99.90
5689;DHT22;2869;50.432;8.680;2024-03-02T08:15:14;7.70;99.90
5689;DHT22;2869;50.432;8.680;2024-03-02T08:17:42;8.30;99.90
5689;DHT22;2869;50.432;8.680;2024-03-02T08:20:13;8.90;99.90
5689;DHT22;2869;50.432;8.680;2024-03-02T08:22:40;9.40;99.90
5689;DHT22;2869;50.432;8.680;2024-03-02T08:25:07;9.80;99.90
5689;DHT22;2869;50.432;8.680;2024-03-02T08:27:34;10.10;99.90
5689;DHT22;2869;50.432;8.680;2024-03-02T08:30:00;10.10;99.90
5689;DHT22;2869;50.432;8.680;2024-03-02T08:32:29;9.80;99.90
5689;DHT22;2869;50.432;8.680;2024-03-02T08:34:56;9.50;99.90
5689;DHT22;2869;50.432;8.680;2024-03-02T08:37:23;9.10;99.90
5689;DHT22;2869;50.432;8.680;2024-03-02T08:39:49;9.00;99.90
5689;DHT22;2869;50.432;8.680;2024-03-02T08:42:16;8.80;99.90
5689;DHT22;2869;50.432;8.680;2024-03-02T08:44:43;8.50;99.90
5689;DHT22;2869;50.432;8.680;2024-03-02T08:47:09;8.20;99.90
5689;DHT22;2869;50.432;8.680;2024-03-02T08:49:36;8.00;99.90
5689;DHT22;2869;50.432;8.680;2024-03-02T08:52:04;7.70;99.90
5689;DHT22;2869;50.432;8.680;2024-03-02T08:54:30;7.60;99.90
5689;DHT22;2869;50.432;8.680;2024-03-02T08:56:58;7.50;99.90
5689;DHT22;2869;50.432;8.680;2024-03-02T08:59:25;7.40;99.90
5689;DHT22;2869;50.432;8.680;2024-03-02T09:01:53;7.30;99.90
5689;DHT22;2869;50.432;8.680;2024-03-02T09:04:19;7.30;99.90
5689;DHT22;2869;50.432;8.680;2024-03-02T09:06:46;7.30;99.90
5689;DHT22;2869;50.432;8.680;2024-03-02T09:09:14;7.20;99.90
5689;DHT22;2869;50.432;8.680;2024-03-02T09:11:40;7.20;99.90
5689;DHT22;2869;50.432;8.680;2024-03-02T09:14:07;7.20;99.90
5689;DHT22;2869;50.432;8.680;2024-03-02T09:16:33;7.30;99.90
5689;DHT22;2869;50.432;8.680;2024-03-02T09:19:00;7.30;99.90
5689;DHT22;2869;50.432;8.680;2024-03-02T09:21:26;7.30;99.90
5689;DHT22;2869;50.432;8.680;2024-03-02T09:23:55;7.30;99.90
5689;DHT22;2869;50.432;8.680;2024-03-02T09:26:23;7.40;99.90
5689;DHT22;2869;50.432;8.680;2024-03-02T09:28:50;7.40;99.90
5689;DHT22;2869;50.432;8.680;2024-03-02T09:31:16;7.50;99.90
5689;DHT22;2869;50.432;8.680;2024-03-02T09:33:43;7.50;99.90
5689;DHT22;2869;50.432;8.680;2024-03-02T09:36:16;7.60;99.90
5689;DHT22;2869;50.432;8.680;2024-03-02T09:38:43;7.50;99.90
5689;DHT22;2869;50.432;8.680;2024-03-02T09:41:09;7.60;99.90
5689;DHT22;2869;50.432;8.680;2024-03-02T09:43:37;7.60;99.90
5689;DHT22;2869;50.432;8.680;2024-03-02T09:46:04;7.60;99.90
5689;DHT22;2869;50.432;8.680;2024-03-02T09:48:31;7.70;99.90
5689;DHT22;2869;50.432;8.680;2024-03-02T09:50:58;8.10;99.90
5689;DHT22;2869;50.432;8.680;2024-03-02T09:53:25;8.60;99.90
5689;DHT22;2869;50.432;8.680;2024-03-02T09:55:52;8.80;99.90
5689;DHT22;2869;50.432;8.680;2024-03-02T09:58:18;8.80;99.90
5689;DHT22;2869;50.432;8.680;2024-03-02T10:00:46;8.70;99.90
5689;DHT22;2869;50.432;8.680;2024-03-02T10:03:14;8.70;99.90
5689;DHT22;2869;50.432;8.680;2024-03-02T10:05:42;8.60;99.90
5689;DHT22;2869;50.432;8.680;2024-03-02T10:08:08;8.50;99.90
5689;DHT22;2869;50.432;8.680;2024-03-02T10:10:35;8.50;99.90
5689;DHT22;2869;50.432;8.680;2024-03-02T10:13:05;8.50;99.90
5689;DHT22;2869;50.432;8.680;2024-03-02T10:15:32;8.50;99.90
5689;DHT22;2869;50.432;8.680;2024-03-02T10:17:59;8.50;99.90
5689;DHT22;2869;50.432;8.680;2024-03-02T10:20:26;8.50;99.90
5689;DHT22;2869;50.432;8.680;2024-03-02T10:22:54;8.50;99.90
5689;DHT22;2869;50.432;8.680;2024-03-02T10:25:30;8.40;99.90
5689;DHT22;2869;50.432;8.680;2024-03-02T10:27:57;8.30;99.90
5689;DHT22;2869;50.432;8.680;2024-03-02T10:30:24;8.30;99.90
5689;DHT22;2869;50.432;8.680;2024-03-02T10:32:52;8.40;99.90
5689;DHT22;2869;50.432;8.680;2024-03-02T10:35:20;8.40;99.90
5689;DHT22;2869;50.432;8.680;2024-03-02T10:37:47;8.50;99.90
5689;DHT22;2869;50.432;8.680;2024-03-02T10:40:13;8.60;99.90
5689;DHT22;2869;50.432;8.680;2024-03-02T10:42:40;8.70;99.90
5689;DHT22;2869;50.432;8.680;2024-03-02T10:45:08;8.80;99.90
5689;DHT22;2869;50.432;8.680;2024-03-02T10:47:35;9.00;99.90
5689;DHT22;2869;50.432;8.680;2024-03-02T10:50:02;9.00;99.90
5689;DHT22;2869;50.432;8.680;2024-03-02T10:52:34;9.10;99.90
5689;DHT22;2869;50.432;8.680;2024-03-02T10:55:01;9.20;99.90
5689;DHT22;2869;50.432;8.680;2024-03-02T10:57:33;9.40;99.90
5689;DHT22;2869;50.432;8.680;2024-03-02T11:00:05;9.50;99.90
5689;DHT22;2869;50.432;8.680;2024-03-02T11:02:32;9.60;99.90
5689;DHT22;2869;50.432;8.680;2024-03-02T11:05:00;9.80;99.90
5689;DHT22;2869;50.432;8.680;2024-03-02T11:07:32;9.80;99.90
5689;DHT22;2869;50.432;8.680;2024-03-02T11:10:01;9.80;99.90
5689;DHT22;2869;50.432;8.680;2024-03-02T11:12:35;9.70;99.90
5689;DHT22;2869;50.432;8.680;2024-03-02T11:15:03;9.80;99.90
5689;DHT22;2869;50.432;8.680;2024-03-02T11:17:31;9.70;99.90
5689;DHT22;2869;50.432;8.680;2024-03-02T11:19:57;9.90;99.90
5689;DHT22;2869;50.432;8.680;2024-03-02T11:22:24;9.90;99.90
5689;DHT22;2869;50.432;8.680;2024-03-02T11:24:51;10.00;99.90
5689;DHT22;2869;50.432;8.680;2024-03-02T11:30:01;10.40;99.90
5689;DHT22;2869;50.432;8.680;2024-03-02T11:32:28;10.40;99.90
5689;DHT22;2869;50.432;8.680;2024-03-02T11:34:55;10.40;99.90
5689;DHT22;2869;50.432;8.680;2024-03-02T11:37:21;10.40;99.90
5689;DHT22;2869;50.432;8.680;2024-03-02T11:39:49;10.40;99.90
5689;DHT22;2869;50.432;8.680;2024-03-02T11:42:16;10.40;99.90
5689;DHT22;2869;50.432;8.680;2024-03-02T11:44:43;10.60;99.90
5689;DHT22;2869;50.432;8.680;2024-03-02T11:47:13;10.80;99.90
5689;DHT22;2869;50.432;8.680;2024-03-02T11:49:43;11.00;99.90
5689;DHT22;2869;50.432;8.680;2024-03-02T11:52:10;11.40;99.90
5689;DHT22;2869;50.432;8.680;2024-03-02T11:54:38;11.60;99.90
5689;DHT22;2869;50.432;8.680;2024-03-02T11:57:05;11.80;99.90
5689;DHT22;2869;50.432;8.680;2024-03-02T11:59:32;11.80;99.90
5689;DHT22;2869;50.432;8.680;2024-03-02T12:01:59;11.80;99.90
5689;DHT22;2869;50.432;8.680;2024-03-02T12:04:27;11.80;99.90
5689;DHT22;2869;50.432;8.680;2024-03-02T12:06:56;11.80;99.90
5689;DHT22;2869;50.432;8.680;2024-03-02T12:09:25;11.90;99.90
5689;DHT22;2869;50.432;8.680;2024-03-02T12:12:00;11.90;99.90
5689;DHT22;2869;50.432;8.680;2024-03-02T12:14:28;11.80;99.90
5689;DHT22;2869;50.432;8.680;2024-03-02T12:16:55;11.70;99.90
5689;DHT22;2869;50.432;8.680;2024-03-02T12:19:23;11.70;99.90
5689;DHT22;2869;50.432;8.680;2024-03-02T12:21:51;11.70;99.90
5689;DHT22;2869;50.432;8.680;2024-03-02T12:24:18;11.70;99.90
5689;DHT22;2869;50.432;8.680;2024-03-02T12:26:45;11.70;99.90
5689;DHT22;2869;50.432;8.680;2024-03-02T12:29:12;11.80;99.90
5689;DHT22;2869;50.432;8.680;2024-03-02T12:31:39;11.70;99.90
5689;DHT22;2869;50.432;8.680;2024-03-02T12:34:05;11.70;99.90
5689;DHT22;2869;50.432;8.680;2024-03-02T12:36:36;11.70;99.90
5689;DHT22;2869;50.432;8.680;2024-03-02T12:39:04;11.70;99.90
5689;DHT22;2869;50.432;8.680;2024-03-02T12:41:31;11.80;99.90
5689;DHT22;2869;50.432;8.680;2024-03-02T12:43:57;12.10;99.90
5689;DHT22;2869;50.432;8.680;2024-03-02T12:46:24;12.30;99.90
5689;DHT22;2869;50.432;8.680;2024-03-02T12:48:51;12.40;99.90
5689;DHT22;2869;50.432;8.680;2024-03-02T12:51:17;12.70;99.90
5689;DHT22;2869;50.432;8.680;2024-03-02T12:53:44;13.10;99.90
5689;DHT22;2869;50.432;8.680;2024-03-02T12:56:12;13.40;99.90
5689;DHT22;2869;50.432;8.680;2024-03-02T12:58:39;13.40;99.90
5689;DHT22;2869;50.432;8.680;2024-03-02T13:01:06;13.40;99.90
5689;DHT22;2869;50.432;8.680;2024-03-02T13:03:35;13.50;99.90
5689;DHT22;2869;50.432;8.680;2024-03-02T13:06:01;13.50;99.90
5689;DHT22;2869;50.432;8.680;2024-03-02T13:08:28;13.50;99.90
5689;DHT22;2869;50.432;8.680;2024-03-02T13:10:54;13.70;99.90
5689;DHT22;2869;50.432;8.680;2024-03-02T13:13:22;13.70;99.90
5689;DHT22;2869;50.432;8.680;2024-03-02T13:15:49;13.60;99.90
5689;DHT22;2869;50.432;8.680;2024-03-02T13:18:17;13.70;99.90
5689;DHT22;2869;50.432;8.680;2024-03-02T13:20:44;13.80;99.90
5689;DHT22;2869;50.432;8.680;2024-03-02T13:23:10;14.00;99.90
5689;DHT22;2869;50.432;8.680;2024-03-02T13:25:37;14.10;99.90
5689;DHT22;2869;50.432;8.680;2024-03-02T13:28:04;14.10;99.90
5689;DHT22;2869;50.432;8.680;2024-03-02T13:30:32;14.20;99.90
5689;DHT22;2869;50.432;8.680;2024-03-02T13:32:58;14.40;99.90
5689;DHT22;2869;50.432;8.680;2024-03-02T13:35:25;14.50;99.90
5689;DHT22;2869;50.432;8.680;2024-03-02T13:37:51;14.40;99.90
5689;DHT22;2869;50.432;8.680;2024-03-02T13:40:18;14.40;99.90
5689;DHT22;2869;50.432;8.680;2024-03-02T13:42:45;14.60;99.90
5689;DHT22;2869;50.432;8.680;2024-03-02T13:45:12;14.60;99.90
5689;DHT22;2869;50.432;8.680;2024-03-02T13:47:40;14.80;99.90
5689;DHT22;2869;50.432;8.680;2024-03-02T13:50:07;14.90;99.90
5689;DHT22;2869;50.432;8.680;2024-03-02T13:52:33;14.90;99.90
5689;DHT22;2869;50.432;8.680;2024-03-02T13:55:00;14.90;99.90
5689;DHT22;2869;50.432;8.680;2024-03-02T13:57:26;15.00;99.90
5689;DHT22;2869;50.432;8.680;2024-03-02T13:59:53;14.90;99.90
5689;DHT22;2869;50.432;8.680;2024-03-02T14:02:20;14.80;99.90
5689;DHT22;2869;50.432;8.680;2024-03-02T14:04:48;14.80;99.90
5689;DHT22;2869;50.432;8.680;2024-03-02T14:07:14;15.00;99.90
5689;DHT22;2869;50.432;8.680;2024-03-02T14:09:41;14.90;99.90
5689;DHT22;2869;50.432;8.680;2024-03-02T14:12:08;14.70;99.90
5689;DHT22;2869;50.432;8.680;2024-03-02T14:14:35;14.60;99.90
5689;DHT22;2869;50.432;8.680;2024-03-02T14:17:01;14.40;99.90
5689;DHT22;2869;50.432;8.680;2024-03-02T14:19:31;14.40;99.90
5689;DHT22;2869;50.432;8.680;2024-03-02T14:21:59;14.40;99.90
5689;DHT22;2869;50.432;8.680;2024-03-02T14:24:26;14.60;99.90
5689;DHT22;2869;50.432;8.680;2024-03-02T14:26:54;14.70;99.90
5689;DHT22;2869;50.432;8.680;2024-03-02T14:29:22;14.90;99.90
5689;DHT22;2869;50.432;8.680;2024-03-02T14:31:49;14.90;99.90
5689;DHT22;2869;50.432;8.680;2024-03-02T14:34:15;14.90;99.90
5689;DHT22;2869;50.432;8.680;2024-03-02T14:36:42;14.90;99.90
5689;DHT22;2869;50.432;8.680;2024-03-02T14:39:10;14.80;99.90
5689;DHT22;2869;50.432;8.680;2024-03-02T14:41:37;14.70;99.90
5689;DHT22;2869;50.432;8.680;2024-03-02T14:44:04;14.60;99.90
5689;DHT22;2869;50.432;8.680;2024-03-02T14:46:31;14.40;99.90
5689;DHT22;2869;50.432;8.680;2024-03-02T14:48:57;14.40;99.90
5689;DHT22;2869;50.432;8.680;2024-03-02T14:51:24;14.50;99.90
5689;DHT22;2869;50.432;8.680;2024-03-02T14:53:51;14.70;99.90
5689;DHT22;2869;50.432;8.680;2024-03-02T14:56:19;14.80;99.90
5689;DHT22;2869;50.432;8.680;2024-03-02T14:58:45;14.90;99.90
5689;DHT22;2869;50.432;8.680;2024-03-02T15:01:12;15.00;99.90
5689;DHT22;2869;50.432;8.680;2024-03-02T15:03:39;14.90;99.90
5689;DHT22;2869;50.432;8.680;2024-03-02T15:06:06;14.90;99.90
5689;DHT22;2869;50.432;8.680;2024-03-02T15:08:33;14.80;99.90
5689;DHT22;2869;50.432;8.680;2024-03-02T15:10:59;14.80;99.90
5689;DHT22;2869;50.432;8.680;2024-03-02T15:13:27;15.10;99.90
5689;DHT22;2869;50.432;8.680;2024-03-02T15:15:54;15.30;99.90
5689;DHT22;2869;50.432;8.680;2024-03-02T15:18:21;15.50;99.90
5689;DHT22;2869;50.432;8.680;2024-03-02T15:20:47;15.60;99.90
5689;DHT22;2869;50.432;8.680;2024-03-02T15:23:14;15.60;99.90
5689;DHT22;2869;50.432;8.680;2024-03-02T15:25:40;15.70;99.90
5689;DHT22;2869;50.432;8.680;2024-03-02T15:28:07;15.50;99.90
5689;DHT22;2869;50.432;8.680;2024-03-02T15:30:35;15.40;99.90
5689;DHT22;2869;50.432;8.680;2024-03-02T15:33:01;15.10;99.90
5689;DHT22;2869;50.432;8.680;2024-03-02T15:35:28;14.90;99.90
5689;DHT22;2869;50.432;8.680;2024-03-02T15:37:54;14.80;99.90
5689;DHT22;2869;50.432;8.680;2024-03-02T15:40:21;14.70;99.90
5689;DHT22;2869;50.432;8.680;2024-03-02T15:42:47;14.50;99.90
5689;DHT22;2869;50.432;8.680;2024-03-02T15:45:14;14.40;99.90
5689;DHT22;2869;50.432;8.680;2024-03-02T15:47:42;14.40;99.90
5689;DHT22;2869;50.432;8.680;2024-03-02T15:50:09;14.30;99.90
5689;DHT22;2869;50.432;8.680;2024-03-02T15:52:35;14.30;99.90
5689;DHT22;2869;50.432;8.680;2024-03-02T15:55:02;14.20;99.90
5689;DHT22;2869;50.432;8.680;2024-03-02T15:57:31;14.10;99.90
5689;DHT22;2869;50.432;8.680;2024-03-02T15:59:57;14.00;99.90
5689;DHT22;2869;50.432;8.680;2024-03-02T16:02:24;13.90;99.90
5689;DHT22;2869;50.432;8.680;2024-03-02T16:04:52;13.80;99.90
5689;DHT22;2869;50.432;8.680;2024-03-02T16:07:18;13.80;99.90
5689;DHT22;2869;50.432;8.680;2024-03-02T16:09:45;13.90;99.90
5689;DHT22;2869;50.432;8.680;2024-03-02T16:12:11;13.80;99.90
5689;DHT22;2869;50.432;8.680;2024-03-02T16:14:37;13.80;99.90